createdAt,value
2022-08-09T00:00:11.300Z,7.00
2022-08-09T00:02:49.006Z,6.57
2022-08-09T00:06:18.097Z,6.78
2022-08-09T00:08:09.875Z,6.70
2022-08-09T00:10:38.758Z,6.90
2022-08-09T00:13:17.580Z,6.78
2022-08-09T00:15:58.721Z,6.43
2022-08-09T00:18:34.888Z,6.82
2022-08-09T00:21:08.791Z,6.20
2022-08-09T00:23:55.883Z,6.90
2022-08-09T00:26:32.569Z,6.75
2022-08-09T00:29:02.272Z,6.15
2022-08-09T00:31:55.885Z,6.12
2022-08-09T00:34:19.522Z,6.18
2022-08-09T00:36:50.206Z,6.95
2022-08-09T00:40:09.247Z,6.43
2022-08-09T00:44:15.218Z,6.62
2022-08-09T00:44:53.950Z,7.15
2022-08-09T00:47:24.585Z,6.87
2022-08-09T00:49:54.886Z,6.82
2022-08-09T00:55:00.411Z,6.43
2022-08-09T00:57:33.771Z,5.77
2022-08-09T01:00:05.462Z,6.35
2022-08-09T01:03:03.119Z,5.68
2022-08-09T01:08:34.739Z,4.65
2022-08-09T01:11:25.990Z,4.70
2022-08-09T01:14:01.925Z,4.78
2022-08-09T01:16:47.090Z,4.37
2022-08-09T01:20:01.664Z,4.22
2022-08-09T01:22:51.977Z,4.22
2022-08-09T01:25:27.250Z,4.07
2022-08-09T01:27:57.858Z,4.55
2022-08-09T01:30:28.473Z,4.28
2022-08-09T01:33:06.223Z,4.22
2022-08-09T01:35:52.767Z,4.15
2022-08-09T01:38:24.513Z,4.37
2022-08-09T01:41:05.071Z,3.97
2022-08-09T01:43:47.993Z,4.37
2022-08-09T01:46:26.951Z,4.68
2022-08-09T01:49:10.195Z,5.62
2022-08-09T01:51:42.744Z,4.80
2022-08-09T01:54:10.336Z,4.30
2022-08-09T01:56:42.887Z,4.60
2022-08-09T01:59:18.901Z,4.37
2022-08-09T02:02:00.163Z,4.68
2022-08-09T02:04:32.113Z,4.55
2022-08-09T02:07:15.451Z,5.15
2022-08-09T02:09:59.811Z,5.20
2022-08-09T02:12:32.796Z,5.43
2022-08-09T02:15:02.941Z,4.60
2022-08-09T02:18:01.704Z,4.85
2022-08-09T02:20:26.305Z,5.10
2022-08-09T02:23:10.120Z,4.75
2022-08-09T02:25:42.626Z,4.50
2022-08-09T02:28:19.353Z,4.65
2022-08-09T02:31:03.733Z,5.00
2022-08-09T02:34:06.429Z,7.47
2022-08-09T02:36:31.803Z,4.47
2022-08-09T02:39:03.188Z,4.78
2022-08-09T02:41:45.840Z,4.32
2022-08-09T02:44:29.260Z,5.70
2022-08-09T02:46:59.964Z,5.20
2022-08-09T02:49:40.914Z,4.90
2022-08-09T02:52:13.107Z,4.47
2022-08-09T02:54:53.907Z,3.92
2022-08-09T02:57:25.002Z,4.57
2022-08-09T03:00:20.567Z,3.70
2022-08-09T03:02:58.039Z,3.85
2022-08-09T03:05:26.602Z,4.10
2022-08-09T03:07:55.805Z,3.70
2022-08-09T03:10:24.489Z,3.50
2022-08-09T03:12:53.170Z,5.22
2022-08-09T03:15:22.896Z,4.30
2022-08-09T03:17:53.865Z,3.72
2022-08-09T03:20:29.452Z,3.75
2022-08-09T03:23:00.404Z,3.97
2022-08-09T03:26:03.074Z,4.05
2022-08-09T03:28:31.246Z,4.22
2022-08-09T03:31:10.052Z,3.50
2022-08-09T03:33:54.275Z,3.90
2022-08-09T03:36:27.619Z,3.92
2022-08-09T03:38:56.440Z,3.50
2022-08-09T03:41:30.210Z,3.67
2022-08-09T03:44:10.281Z,4.22
2022-08-09T03:46:39.433Z,4.10
2022-08-09T03:49:08.989Z,3.95
2022-08-09T03:51:56.666Z,3.78
2022-08-09T03:54:29.191Z,3.70
2022-08-09T03:57:04.021Z,5.00
2022-08-09T03:59:53.802Z,3.25
2022-08-09T04:02:26.940Z,3.58
2022-08-09T04:05:00.710Z,3.25
2022-08-09T04:07:47.045Z,3.67
2022-08-09T04:10:20.230Z,4.05
2022-08-09T04:12:52.562Z,3.22
2022-08-09T04:15:40.437Z,3.03
2022-08-09T04:18:18.105Z,3.15
2022-08-09T04:20:47.866Z,3.12
2022-08-09T04:23:17.177Z,3.12
2022-08-09T04:25:51.973Z,2.87
2022-08-09T04:28:33.734Z,3.42
2022-08-09T04:31:05.698Z,2.80
2022-08-09T04:33:52.182Z,3.22
2022-08-09T04:36:21.922Z,2.90
2022-08-09T04:38:50.659Z,2.95
2022-08-09T04:41:17.299Z,3.42
2022-08-09T04:43:53.797Z,3.90
2022-08-09T04:46:57.023Z,3.40
2022-08-09T04:49:22.235Z,3.28
2022-08-09T04:52:07.403Z,3.22
2022-08-09T04:54:36.151Z,3.25
2022-08-09T04:57:03.971Z,3.00
2022-08-09T04:59:31.478Z,4.55
2022-08-09T05:01:58.638Z,3.15
2022-08-09T05:06:58.476Z,3.55
2022-08-09T05:09:25.537Z,2.90
2022-08-09T05:12:11.109Z,3.50
2022-08-09T05:14:40.964Z,3.20
2022-08-09T05:18:36.628Z,3.85
2022-08-09T05:19:57.035Z,3.28
2022-08-09T05:22:35.844Z,2.87
2022-08-09T05:25:12.324Z,3.10
2022-08-09T05:27:46.442Z,2.65
2022-08-09T05:30:17.600Z,2.92
2022-08-09T05:32:50.981Z,2.90
2022-08-09T05:35:22.127Z,2.95
2022-08-09T05:37:50.497Z,3.22
2022-08-09T05:40:18.297Z,2.95
2022-08-09T05:42:45.967Z,3.58
2022-08-09T05:45:14.572Z,3.55
2022-08-09T05:47:52.515Z,4.12
2022-08-09T05:50:43.924Z,2.87
2022-08-09T05:53:21.652Z,2.40
2022-08-09T05:55:58.797Z,2.30
2022-08-09T05:58:25.544Z,2.78
2022-08-09T06:00:53.779Z,3.33
2022-08-09T06:03:20.783Z,2.53
2022-08-09T06:05:54.834Z,3.20
2022-08-09T06:08:25.206Z,2.55
2022-08-09T06:10:53.950Z,2.35
2022-08-09T06:13:21.612Z,3.70
2022-08-09T06:15:51.569Z,2.60
2022-08-09T06:18:25.187Z,2.70
2022-08-09T06:20:57.282Z,2.40
2022-08-09T06:23:58.483Z,2.00
2022-08-09T06:26:21.095Z,2.80
2022-08-09T06:28:59.985Z,2.55
2022-08-09T06:31:40.094Z,3.22
2022-08-09T06:34:19.266Z,3.17
2022-08-09T06:36:46.233Z,2.85
2022-08-09T06:39:13.627Z,2.83
2022-08-09T06:42:08.773Z,2.20
2022-08-09T06:44:30.672Z,2.53
2022-08-09T06:46:57.413Z,2.47
2022-08-09T06:49:45.123Z,3.33
2022-08-09T06:52:12.106Z,2.53
2022-08-09T06:54:42.380Z,2.50
2022-08-09T06:57:12.019Z,2.90
2022-08-09T07:00:52.251Z,2.50
2022-08-09T07:02:29.211Z,3.42
2022-08-09T07:04:58.245Z,4.37
2022-08-09T07:07:58.551Z,3.85
2022-08-09T07:10:29.711Z,2.60
2022-08-09T07:12:59.758Z,4.70
2022-08-09T07:15:53.723Z,2.60
2022-08-09T07:18:15.060Z,3.78
2022-08-09T07:20:43.450Z,3.83
2022-08-09T07:23:18.825Z,2.40
2022-08-09T07:25:52.127Z,2.53
2022-08-09T07:28:26.151Z,2.05
2022-08-09T07:30:55.730Z,2.42
2022-08-09T07:33:23.230Z,2.95
2022-08-09T07:35:53.937Z,4.22
2022-08-09T07:38:23.331Z,2.53
2022-08-09T07:41:00.885Z,2.78
2022-08-09T07:43:41.232Z,2.97
2022-08-09T07:46:19.430Z,2.42
2022-08-09T07:48:52.964Z,2.20
2022-08-09T07:52:03.255Z,2.75
2022-08-09T07:54:14.039Z,2.45
2022-08-09T07:56:44.991Z,2.03
2022-08-09T07:59:33.776Z,2.53
2022-08-09T08:02:09.110Z,3.92
2022-08-09T08:04:37.230Z,2.20
2022-08-09T08:07:09.274Z,4.05
2022-08-09T08:09:46.686Z,1.80
2022-08-09T08:12:27.424Z,2.22
2022-08-09T08:14:56.934Z,2.15
2022-08-09T08:17:24.893Z,2.67
2022-08-09T08:20:13.102Z,2.30
2022-08-09T08:22:40.905Z,2.25
2022-08-09T08:25:13.618Z,2.20
2022-08-09T08:27:43.142Z,1.90
2022-08-09T08:30:13.693Z,4.72
2022-08-09T08:32:53.621Z,2.15
2022-08-09T08:35:22.344Z,2.97
2022-08-09T08:38:02.248Z,2.05
2022-08-09T08:40:33.551Z,1.80
2022-08-09T08:43:03.257Z,2.50
2022-08-09T08:45:51.364Z,2.40
2022-08-09T08:48:19.839Z,2.80
2022-08-09T08:50:49.389Z,2.20
2022-08-09T08:53:21.567Z,2.80
2022-08-09T08:55:49.012Z,1.90
2022-08-09T08:58:24.004Z,2.47
2022-08-09T09:00:57.065Z,2.00
2022-08-09T09:03:33.207Z,2.35
2022-08-09T09:06:07.275Z,2.42
2022-08-09T09:08:41.002Z,2.10
2022-08-09T09:11:17.306Z,2.50
2022-08-09T09:13:56.490Z,2.12
2022-08-09T09:16:33.640Z,2.10
2022-08-09T09:22:04.146Z,2.28
2022-08-09T09:24:38.853Z,2.15
2022-08-09T09:27:09.352Z,4.60
2022-08-09T09:32:36.471Z,1.60
2022-08-09T09:35:12.984Z,2.45
2022-08-09T09:37:45.605Z,2.55
2022-08-09T09:40:14.069Z,2.40
2022-08-09T09:42:55.940Z,2.87
2022-08-09T09:45:25.738Z,2.08
2022-08-09T09:47:58.893Z,2.35
2022-08-09T09:50:49.817Z,2.43
2022-08-09T09:53:57.190Z,2.70
2022-08-09T09:56:19.988Z,2.58
2022-08-09T09:58:58.720Z,2.20
2022-08-09T10:01:31.536Z,3.03
2022-08-09T10:04:15.890Z,1.77
2022-08-09T10:06:51.922Z,3.12
2022-08-09T10:09:23.856Z,2.03
2022-08-09T10:12:12.406Z,2.12
2022-08-09T10:14:48.607Z,2.22
2022-08-09T10:17:51.253Z,2.33
2022-08-09T10:20:31.792Z,1.98
2022-08-09T10:23:20.868Z,1.90
2022-08-09T10:26:04.901Z,2.55
2022-08-09T10:28:37.640Z,1.98
2022-08-09T10:34:11.160Z,3.25
2022-08-09T10:36:42.800Z,3.95
2022-08-09T10:39:15.473Z,2.40
2022-08-09T10:41:47.749Z,2.87
2022-08-09T10:44:18.897Z,4.07
2022-08-09T10:48:12.703Z,2.03
2022-08-09T10:50:14.746Z,1.90
2022-08-09T10:53:05.094Z,2.45
2022-08-09T10:55:58.438Z,2.12
2022-08-09T10:58:35.066Z,2.50
2022-08-09T11:03:06.781Z,1.60
2022-08-09T11:04:27.939Z,2.67
2022-08-09T11:06:57.735Z,1.70
2022-08-09T11:09:47.508Z,2.03
2022-08-09T11:12:29.858Z,2.60
2022-08-09T11:15:23.897Z,2.55
2022-08-09T11:18:03.039Z,2.65
2022-08-09T11:20:47.524Z,1.75
2022-08-09T11:23:16.798Z,1.67
2022-08-09T11:25:51.121Z,3.28
2022-08-09T11:28:35.154Z,1.87
2022-08-09T11:31:43.594Z,3.35
2022-08-09T11:34:24.958Z,1.80
2022-08-09T11:36:52.970Z,1.83
2022-08-09T11:39:19.871Z,3.75
2022-08-09T11:41:46.770Z,1.87
2022-08-09T11:44:16.028Z,1.87
2022-08-09T11:46:57.869Z,2.25
2022-08-09T11:50:56.529Z,2.17
2022-08-09T11:53:59.856Z,2.30
2022-08-09T11:55:53.766Z,2.47
2022-08-09T11:58:33.718Z,3.35
2022-08-09T12:01:37.610Z,2.12
2022-08-09T12:04:07.509Z,2.00
2022-08-09T12:06:55.505Z,2.30
2022-08-09T12:09:33.717Z,1.67
2022-08-09T12:12:12.997Z,1.58
2022-08-09T12:15:04.213Z,1.98
2022-08-09T12:17:43.055Z,2.10
2022-08-09T12:20:21.432Z,1.40
2022-08-09T12:22:55.888Z,1.87
2022-08-09T12:25:31.847Z,1.58
2022-08-09T12:29:10.433Z,2.08
2022-08-09T12:31:00.214Z,2.10
2022-08-09T12:33:50.770Z,2.33
2022-08-09T12:36:27.396Z,1.85
2022-08-09T12:38:58.934Z,2.50
2022-08-09T12:41:38.309Z,1.60
2022-08-09T12:44:08.045Z,2.28
2022-08-09T12:46:40.749Z,2.28
2022-08-09T12:49:08.830Z,1.60
2022-08-09T12:51:52.564Z,1.95
2022-08-09T12:54:24.384Z,3.55
2022-08-09T12:56:54.668Z,1.80
2022-08-09T12:59:23.453Z,1.98
2022-08-09T13:01:59.275Z,2.53
2022-08-09T13:04:38.195Z,1.83
2022-08-09T13:07:14.455Z,3.00
2022-08-09T13:09:52.572Z,1.85
2022-08-09T13:12:23.582Z,2.33
2022-08-09T13:14:54.069Z,2.37
2022-08-09T13:18:02.655Z,2.30
2022-08-09T13:20:18.844Z,1.90
2022-08-09T13:23:01.510Z,2.00
2022-08-09T13:25:55.003Z,3.03
2022-08-09T13:28:24.596Z,1.70
2022-08-09T13:32:13.622Z,2.65
2022-08-09T13:33:57.929Z,1.70
2022-08-09T13:36:41.414Z,1.98
2022-08-09T13:41:20.893Z,2.42
2022-08-09T13:42:12.164Z,2.42
2022-08-09T13:44:42.165Z,1.67
2022-08-09T13:47:33.811Z,2.08
2022-08-09T13:50:12.546Z,3.03
2022-08-09T13:52:41.747Z,2.53
2022-08-09T13:55:13.787Z,1.92
2022-08-09T13:57:44.288Z,3.62
2022-08-09T14:00:16.453Z,2.53
2022-08-09T14:03:03.155Z,1.67
2022-08-09T14:06:00.669Z,2.10
2022-08-09T14:08:27.116Z,2.83
2022-08-09T14:10:55.980Z,2.80
2022-08-09T14:14:15.539Z,1.90
2022-08-09T14:16:15.889Z,3.15
2022-08-09T14:21:18.341Z,2.25
2022-08-09T14:23:54.743Z,2.12
2022-08-09T14:26:32.046Z,2.37
2022-08-09T14:29:02.199Z,1.80
2022-08-09T14:31:49.596Z,1.92
2022-08-09T14:34:31.443Z,1.55
2022-08-09T14:37:06.907Z,2.97
2022-08-09T14:39:45.445Z,3.28
2022-08-09T14:42:30.204Z,1.67
2022-08-09T14:46:39.731Z,2.67
2022-08-09T14:48:00.207Z,2.50
2022-08-09T14:50:31.268Z,3.55
2022-08-09T14:53:00.063Z,1.92
2022-08-09T14:55:29.269Z,2.62
2022-08-09T14:58:04.558Z,1.80
2022-08-09T15:00:34.303Z,2.20
2022-08-09T15:03:08.104Z,3.72
2022-08-09T15:05:37.699Z,2.28
2022-08-09T15:08:05.784Z,2.70
2022-08-09T15:10:34.881Z,2.00
2022-08-09T15:13:04.215Z,2.22
2022-08-09T15:15:34.127Z,1.70
2022-08-09T15:18:07.497Z,2.03
2022-08-09T15:21:57.307Z,3.78
2022-08-09T15:24:02.326Z,3.85
2022-08-09T15:26:18.704Z,2.20
2022-08-09T15:28:55.584Z,3.65
2022-08-09T15:31:28.466Z,2.20
2022-08-09T15:34:33.408Z,2.67
2022-08-09T15:36:55.167Z,2.37
2022-08-09T15:39:25.887Z,3.03
2022-08-09T15:42:02.617Z,2.72
2022-08-09T15:44:32.673Z,2.53
2022-08-09T15:47:00.809Z,3.07
2022-08-09T15:49:28.414Z,3.67
2022-08-09T15:52:04.603Z,3.22
2022-08-09T15:54:44.590Z,2.75
2022-08-09T15:57:19.122Z,3.30
2022-08-09T16:00:04.895Z,3.00
2022-08-09T16:02:31.480Z,3.35
2022-08-09T16:04:58.582Z,2.97
2022-08-09T16:07:29.296Z,5.13
2022-08-09T16:10:11.151Z,4.12
2022-08-09T16:12:41.476Z,4.25
2022-08-09T16:16:10.789Z,4.07
2022-08-09T16:18:05.079Z,2.22
2022-08-09T16:20:32.117Z,4.35
2022-08-09T16:23:01.106Z,2.22
2022-08-09T16:25:36.982Z,2.42
2022-08-09T16:28:12.132Z,2.70
2022-08-09T16:30:40.943Z,3.15
2022-08-09T16:35:55.719Z,4.78
2022-08-09T16:38:27.423Z,2.60
2022-08-09T16:40:54.264Z,3.15
2022-08-09T16:43:23.031Z,2.25
2022-08-09T16:45:53.838Z,2.53
2022-08-09T16:48:38.948Z,3.05
2022-08-09T16:51:14.153Z,3.28
2022-08-09T16:54:16.498Z,4.37
2022-08-09T16:56:34.569Z,2.00
2022-08-09T16:59:10.193Z,2.40
2022-08-09T17:01:38.866Z,2.75
2022-08-09T17:04:06.724Z,2.40
2022-08-09T17:07:09.238Z,3.75
2022-08-09T17:09:45.830Z,2.17
2022-08-09T17:12:08.537Z,2.25
2022-08-09T17:14:35.622Z,2.00
2022-08-09T17:17:23.259Z,2.40
2022-08-09T17:20:29.740Z,2.40
2022-08-09T17:22:52.139Z,3.47
2022-08-09T17:25:22.336Z,2.20
2022-08-09T17:27:54.469Z,2.40
2022-08-09T17:32:52.919Z,2.50
2022-08-09T17:35:19.689Z,3.15
2022-08-09T17:38:12.745Z,4.47
2022-08-09T17:40:35.240Z,2.53
2022-08-09T17:43:32.111Z,2.33
2022-08-09T17:46:02.942Z,3.55
2022-08-09T17:48:38.564Z,3.60
2022-08-09T17:51:10.321Z,2.80
2022-08-09T17:53:51.612Z,2.85
2022-08-09T17:56:35.512Z,2.50
2022-08-09T17:59:11.471Z,3.40
2022-08-09T18:02:03.295Z,2.42
2022-08-09T18:04:27.200Z,1.90
2022-08-09T18:06:55.632Z,2.17
2022-08-09T18:09:41.145Z,1.98
2022-08-09T18:12:19.586Z,2.55
2022-08-09T18:14:55.073Z,3.15
2022-08-09T18:18:02.705Z,2.17
2022-08-09T18:20:53.884Z,3.53
2022-08-09T18:23:05.273Z,2.95
2022-08-09T18:25:50.181Z,3.20
2022-08-09T18:30:34.144Z,3.50
2022-08-09T18:31:05.548Z,2.78
2022-08-09T18:33:34.523Z,3.30
2022-08-09T18:36:01.179Z,3.28
2022-08-09T18:38:28.325Z,4.68
2022-08-09T18:40:55.820Z,3.40
2022-08-09T18:43:24.435Z,6.47
2022-08-09T18:46:46.884Z,4.40
2022-08-09T18:48:38.579Z,5.35
2022-08-09T18:51:09.258Z,5.17
2022-08-09T18:53:55.898Z,4.05
2022-08-09T18:56:27.029Z,5.95
2022-08-09T18:58:56.242Z,3.95
2022-08-09T19:01:24.177Z,4.57
2022-08-09T19:04:01.654Z,4.55
2022-08-09T19:06:36.297Z,4.03
2022-08-09T19:11:37.573Z,4.60
2022-08-09T19:14:06.358Z,4.68
2022-08-09T19:16:36.416Z,5.45
2022-08-09T19:19:25.051Z,6.93
2022-08-09T19:22:06.283Z,3.83
2022-08-09T19:25:11.648Z,5.75
2022-08-09T19:27:22.487Z,6.53
2022-08-09T19:30:25.205Z,5.50
2022-08-09T19:32:36.954Z,5.32
2022-08-09T19:35:04.807Z,2.90
2022-08-09T19:37:40.938Z,3.15
2022-08-09T19:40:19.970Z,2.78
2022-08-09T19:42:47.440Z,2.80
2022-08-09T19:45:16.618Z,3.05
2022-08-09T19:47:44.715Z,2.20
2022-08-09T19:50:51.006Z,1.95
2022-08-09T19:53:04.327Z,2.00
2022-08-09T19:56:02.470Z,1.98
2022-08-09T19:58:29.838Z,2.35
2022-08-09T20:00:58.310Z,2.90
2022-08-09T20:04:18.677Z,2.67
2022-08-09T20:06:23.018Z,4.37
2022-08-09T20:08:56.871Z,2.70
2022-08-09T20:11:26.749Z,2.53
2022-08-09T20:13:55.107Z,2.37
2022-08-09T20:16:35.605Z,3.10
2022-08-09T20:19:48.631Z,3.42
2022-08-09T20:21:57.269Z,3.47
2022-08-09T20:24:29.738Z,5.00
2022-08-09T20:27:02.651Z,6.03
2022-08-09T20:29:37.226Z,5.45
2022-08-09T20:32:29.378Z,4.37
2022-08-09T20:34:57.023Z,3.60
2022-08-09T20:37:23.980Z,3.95
2022-08-09T20:40:15.622Z,3.15
2022-08-09T20:42:38.205Z,3.12
2022-08-09T20:45:59.800Z,3.42
2022-08-09T20:47:55.101Z,4.32
2022-08-09T20:50:48.145Z,5.18
2022-08-09T20:53:18.513Z,3.12
2022-08-09T20:56:02.557Z,3.30
2022-08-09T20:58:32.673Z,3.30
2022-08-09T21:01:32.843Z,2.95
2022-08-09T21:05:48.262Z,4.00
2022-08-09T21:06:36.414Z,2.97
2022-08-09T21:09:03.815Z,3.03
2022-08-09T21:14:17.909Z,3.70
2022-08-09T21:16:45.692Z,2.72
2022-08-09T21:20:17.019Z,2.70
2022-08-09T21:22:00.245Z,3.42
2022-08-09T21:24:32.655Z,4.78
2022-08-09T21:27:10.211Z,3.17
2022-08-09T21:29:49.318Z,3.03
2022-08-09T21:32:18.759Z,3.85
2022-08-09T21:34:48.245Z,3.25
2022-08-09T21:37:18.212Z,3.47
2022-08-09T21:39:49.699Z,3.55
2022-08-09T21:42:17.535Z,3.28
2022-08-09T21:44:55.909Z,3.83
2022-08-09T21:47:23.002Z,4.25
2022-08-09T21:49:50.883Z,4.43
2022-08-09T21:52:20.338Z,3.60
2022-08-09T21:54:59.591Z,4.20
2022-08-09T21:57:39.311Z,3.47
2022-08-09T22:00:26.570Z,3.90
2022-08-09T22:03:04.712Z,3.72
2022-08-09T22:05:35.655Z,3.40
2022-08-09T22:08:06.718Z,3.97
2022-08-09T22:11:49.497Z,3.47
2022-08-09T22:13:31.599Z,3.30
2022-08-09T22:16:07.225Z,3.30
2022-08-09T22:18:37.094Z,2.90
2022-08-09T22:21:09.370Z,4.53
2022-08-09T22:23:59.527Z,3.45
2022-08-09T22:26:35.307Z,5.78
2022-08-09T22:29:09.861Z,3.60
2022-08-09T22:31:44.170Z,3.90
2022-08-09T22:34:14.783Z,3.17
2022-08-09T22:36:45.961Z,4.10
2022-08-09T22:39:20.830Z,4.40
2022-08-09T22:42:02.641Z,3.42
2022-08-09T22:44:32.876Z,3.50
2022-08-09T22:48:13.620Z,3.35
2022-08-09T22:49:48.145Z,3.58
2022-08-09T22:52:19.792Z,3.45
2022-08-09T22:54:48.186Z,3.40
2022-08-09T22:57:15.455Z,3.28
2022-08-09T22:59:57.458Z,4.00
2022-08-09T23:02:27.397Z,3.80
2022-08-09T23:04:54.826Z,3.70
2022-08-09T23:08:27.271Z,4.85
2022-08-09T23:10:32.861Z,3.60
2022-08-09T23:12:59.932Z,4.00
2022-08-09T23:15:27.701Z,4.20
2022-08-09T23:17:56.120Z,5.22
2022-08-09T23:20:23.882Z,4.05
2022-08-09T23:22:50.541Z,4.65
2022-08-09T23:25:17.720Z,3.75
2022-08-09T23:27:57.475Z,4.53
2022-08-09T23:30:31.532Z,3.92
2022-08-09T23:32:58.249Z,3.80
2022-08-09T23:35:24.997Z,3.80
2022-08-09T23:37:52.052Z,4.32
2022-08-09T23:40:18.772Z,5.20
2022-08-09T23:42:45.463Z,3.62
2022-08-09T23:45:36.611Z,3.58
2022-08-09T23:47:59.302Z,4.12
2022-08-09T23:50:26.761Z,3.58
2022-08-09T23:52:53.946Z,3.20
2022-08-09T23:55:20.868Z,3.92
2022-08-09T23:58:10.535Z,3.90
